Time;durP1;ratioP1;P1;durP2;ratioP2;P2;SDS_P1;SDS_P2;PMS_P1;PMS_P2;Temp;Humidity;BMP_temperature;BMP_pressure;BME280_temperature;BME280_humidity;BME280_pressure;Samples;Min_cycle;Max_cycle;Signal;HPM_P1;HPM_P2
2022/05/20 00:00:58;;;;;;;13.02;9.75;;;13.50;99.90;;;;;;5033786;28;20123;-64
2022/05/20 00:03:24;;;;;;;12.02;9.65;;;13.60;99.90;;;;;;5032147;28;20077;-67
2022/05/20 00:05:50;;;;;;;12.27;9.27;;;13.50;99.90;;;;;;5032800;28;20053;-66
2022/05/20 00:08:16;;;;;;;15.00;9.73;;;13.50;99.90;;;;;;5032775;28;20053;-67
2022/05/20 00:10:42;;;;;;;13.65;10.27;;;13.50;99.90;;;;;;5031893;28;20117;-67
2022/05/20 00:13:09;;;;;;;13.10;10.38;;;13.50;99.90;;;;;;5031171;28;20049;-65
2022/05/20 00:15:35;;;;;;;12.07;10.38;;;13.50;99.90;;;;;;5033831;28;20053;-66
2022/05/20 00:18:01;;;;;;;12.95;10.90;;;13.40;99.90;;;;;;5031619;28;20053;-67
2022/05/20 00:20:28;;;;;;;11.85;10.35;;;13.50;99.90;;;;;;5030569;28;20452;-65
2022/05/20 00:22:54;;;;;;;12.23;10.80;;;13.50;99.90;;;;;;5030617;28;20520;-66
2022/05/20 00:28:06;;;;;;;13.80;11.65;;;13.40;99.90;;;;;;5033542;28;20406;-65
2022/05/20 00:30:32;;;;;;;15.60;11.63;;;13.40;99.90;;;;;;5033603;28;20046;-65
2022/05/20 00:32:58;;;;;;;16.08;12.45;;;13.40;99.90;;;;;;5031739;28;20054;-66
2022/05/20 00:35:24;;;;;;;15.18;11.95;;;13.40;99.90;;;;;;5032485;28;20375;-66
2022/05/20 00:37:50;;;;;;;14.25;12.50;;;13.40;99.90;;;;;;5030916;28;20046;-66
2022/05/20 00:40:20;;;;;;;12.73;11.38;;;13.40;99.90;;;;;;5032391;28;20057;-66
2022/05/20 00:42:45;;;;;;;13.25;11.85;;;13.50;99.90;;;;;;5033243;28;20053;-66
2022/05/20 00:45:12;;;;;;;12.27;11.02;;;13.40;99.90;;;;;;5033371;28;20478;-67
2022/05/20 00:47:37;;;;;;;15.88;11.98;;;13.40;99.90;;;;;;5031533;28;20420;-65
2022/05/20 00:50:11;;;;;;;13.25;11.82;;;13.40;99.90;;;;;;5028505;28;20053;-65
2022/05/20 00:52:38;;;;;;;15.60;11.95;;;13.40;99.90;;;;;;5029046;28;20102;-65
2022/05/20 00:55:10;;;;;;;13.43;10.95;;;13.40;99.90;;;;;;5031249;28;20124;-66
2022/05/20 00:57:42;;;;;;;13.13;11.65;;;13.50;99.90;;;;;;5033133;28;20068;-67
2022/05/20 01:00:21;;;;;;;13.23;11.82;;;13.50;99.90;;;;;;5031667;28;20061;-66
2022/05/20 01:02:50;;;;;;;15.15;11.63;;;13.50;99.90;;;;;;5031555;28;20516;-65
2022/05/20 01:05:41;;;;;;;18.63;12.77;;;13.50;99.90;;;;;;5031791;28;20519;-65
2022/05/20 01:08:11;;;;;;;13.68;11.57;;;13.10;99.90;;;;;;5031353;28;20061;-66
2022/05/20 01:10:36;;;;;;;17.02;11.77;;;13.20;99.90;;;;;;5033280;28;20049;-66
2022/05/20 01:13:03;;;;;;;14.70;13.07;;;13.50;99.90;;;;;;5030924;28;20288;-65
2022/05/20 01:15:29;;;;;;;14.55;11.80;;;13.50;99.90;;;;;;5030140;28;20559;-66
2022/05/20 01:17:57;;;;;;;15.57;12.90;;;13.50;99.90;;;;;;5031991;28;20060;-65
2022/05/20 01:20:27;;;;;;;14.88;12.70;;;13.50;99.90;;;;;;5032937;28;20122;-65
2022/05/20 01:22:58;;;;;;;14.48;12.95;;;13.50;99.90;;;;;;5029906;28;20058;-66
2022/05/20 01:25:26;;;;;;;14.52;11.45;;;13.50;99.90;;;;;;5030225;28;20167;-66
2022/05/20 01:27:52;;;;;;;13.10;10.25;;;13.30;99.90;;;;;;5032751;28;20072;-66
2022/05/20 01:30:21;;;;;;;11.65;9.40;;;13.50;99.90;;;;;;5031856;28;20359;-65
2022/05/20 01:32:47;;;;;;;12.93;9.73;;;13.40;99.90;;;;;;5031911;28;20164;-66
2022/05/20 01:35:35;;;;;;;11.15;9.93;;;13.30;99.90;;;;;;5031268;28;20049;-66
2022/05/20 01:38:00;;;;;;;11.60;9.13;;;13.40;99.90;;;;;;5030479;28;20057;-66
2022/05/20 01:40:34;;;;;;;12.95;8.68;;;13.30;99.90;;;;;;5031678;28;20054;-65
2022/05/20 01:43:08;;;;;;;11.40;8.43;;;13.30;99.90;;;;;;5015028;28;20125;-66
2022/05/20 01:45:50;;;;;;;9.68;7.75;;;13.30;99.90;;;;;;5031780;28;20045;-66
2022/05/20 01:48:35;;;;;;;9.27;8.38;;;13.30;99.90;;;;;;5030943;28;20089;-65
2022/05/20 01:51:05;;;;;;;12.35;8.68;;;13.20;99.90;;;;;;5032493;28;20487;-67
2022/05/20 01:53:37;;;;;;;11.85;9.05;;;13.10;99.90;;;;;;5031061;28;20050;-65
2022/05/20 01:56:12;;;;;;;10.23;8.48;;;13.20;99.90;;;;;;5031845;28;20185;-66
2022/05/20 01:58:48;;;;;;;12.85;8.73;;;13.20;99.90;;;;;;5032719;28;20092;-66
2022/05/20 02:01:20;;;;;;;11.93;9.50;;;13.20;99.90;;;;;;5033815;28;20414;-66
2022/05/20 02:03:53;;;;;;;15.48;9.38;;;13.10;99.90;;;;;;5036543;28;20076;-66
2022/05/20 02:06:30;;;;;;;12.77;9.68;;;13.20;99.90;;;;;;5036141;28;20049;-65
2022/05/20 02:09:02;;;;;;;14.40;9.30;;;13.20;99.90;;;;;;5033901;28;20061;-66
2022/05/20 02:11:49;;;;;;;15.45;9.40;;;13.20;99.90;;;;;;5035279;28;20511;-65
2022/05/20 02:14:23;;;;;;;12.27;8.43;;;13.20;99.90;;;;;;5034345;28;20164;-65
2022/05/20 02:17:07;;;;;;;12.93;9.23;;;13.20;99.90;;;;;;5035375;28;20498;-66
2022/05/20 02:19:39;;;;;;;14.15;9.52;;;13.20;99.90;;;;;;5034723;28;20057;-66
2022/05/20 02:22:11;;;;;;;14.52;9.40;;;13.20;99.90;;;;;;5034204;28;20052;-66
2022/05/20 02:24:37;;;;;;;;;;;13.20;99.90;;;;;;5035783;28;20141;-65
2022/05/20 02:27:06;;;;;;;14.43;9.40;;;13.20;99.90;;;;;;5035704;28;19975;-66
2022/05/20 02:29:45;;;;;;;10.35;8.82;;;13.20;99.90;;;;;;5035915;28;20045;-65
2022/05/20 02:32:16;;;;;;;13.45;9.27;;;13.30;99.90;;;;;;5034447;28;20057;-66
2022/05/20 02:34:42;;;;;;;;;;;13.20;99.90;;;;;;5035429;28;20328;-66
2022/05/20 02:37:21;;;;;;;9.25;7.78;;;13.20;99.90;;;;;;5034145;28;19932;-66
2022/05/20 02:39:47;;;;;;;16.10;10.02;;;13.20;99.90;;;;;;5028617;28;20086;-66
2022/05/20 02:42:13;;;;;;;13.38;9.77;;;13.20;99.90;;;;;;5035401;28;20452;-66
2022/05/20 02:44:39;;;;;;;15.52;9.85;;;13.20;99.90;;;;;;5033406;28;20050;-66
2022/05/20 02:47:05;;;;;;;12.20;9.57;;;13.20;99.90;;;;;;5033077;28;20053;-65
2022/05/20 02:49:30;;;;;;;11.98;9.57;;;13.20;99.90;;;;;;5035408;28;20065;-66
2022/05/20 02:51:56;;;;;;;13.07;9.50;;;13.20;99.90;;;;;;5035684;28;20053;-65
2022/05/20 02:54:21;;;;;;;12.98;9.68;;;13.10;99.90;;;;;;5033472;28;20029;-65
2022/05/20 02:56:47;;;;;;;12.13;9.45;;;13.20;99.90;;;;;;5033700;28;20056;-66
2022/05/20 03:04:44;;;;;;;13.05;9.93;;;13.10;99.90;;;;;;5034833;28;20056;-65
2022/05/20 03:07:10;;;;;;;13.13;9.65;;;13.00;99.90;;;;;;5033569;28;20049;-66
2022/05/20 03:09:36;;;;;;;12.88;10.43;;;13.10;99.90;;;;;;5034478;28;20050;-66
2022/05/20 03:12:01;;;;;;;14.77;10.02;;;13.10;99.90;;;;;;5031854;28;20061;-66
2022/05/20 03:14:27;;;;;;;12.13;10.18;;;13.00;99.90;;;;;;5032948;28;20056;-66
2022/05/20 03:16:53;;;;;;;15.85;10.95;;;12.90;99.90;;;;;;5034364;28;20112;-67
2022/05/20 03:19:20;;;;;;;12.98;9.27;;;13.00;99.90;;;;;;5034737;28;20410;-66
2022/05/20 03:21:46;;;;;;;13.73;9.27;;;13.00;99.90;;;;;;5032945;28;20045;-66
2022/05/20 03:24:12;;;;;;;13.93;10.90;;;13.00;99.90;;;;;;5033208;28;20454;-66
2022/05/20 03:26:38;;;;;;;13.57;11.35;;;12.90;99.90;;;;;;5034753;28;20041;-66
2022/05/20 03:29:05;;;;;;;13.48;10.30;;;13.00;99.90;;;;;;5034902;28;20107;-66
2022/05/20 03:31:33;;;;;;;15.93;10.25;;;13.00;99.90;;;;;;5033109;28;20050;-66
2022/05/20 03:34:05;;;;;;;16.13;11.10;;;13.00;99.90;;;;;;5033779;28;20417;-65
2022/05/20 03:36:31;;;;;;;13.55;10.60;;;12.90;99.90;;;;;;5032956;28;20049;-65
2022/05/20 03:38:56;;;;;;;12.45;9.40;;;12.90;99.90;;;;;;5032382;28;20064;-66
2022/05/20 03:41:23;;;;;;;15.05;10.05;;;12.80;99.90;;;;;;5034204;28;20144;-67
2022/05/20 03:43:49;;;;;;;14.00;10.98;;;12.80;99.90;;;;;;5031349;28;20485;-66
2022/05/20 03:46:14;;;;;;;13.18;10.60;;;12.70;99.90;;;;;;5032404;28;20050;-66
2022/05/20 03:48:40;;;;;;;13.30;11.35;;;12.60;99.90;;;;;;5033406;28;20447;-66
2022/05/20 03:51:13;;;;;;;12.82;10.20;;;12.60;99.90;;;;;;5029492;28;20668;-66
2022/05/20 03:53:39;;;;;;;14.05;10.15;;;12.60;99.90;;;;;;5014986;28;20429;-65
2022/05/20 03:56:05;;;;;;;13.82;11.25;;;12.60;99.90;;;;;;5014433;28;20049;-67
2022/05/20 03:58:31;;;;;;;17.98;12.27;;;12.50;99.90;;;;;;5013226;28;20410;-65
2022/05/20 04:03:43;;;;;;;16.08;12.70;;;12.50;99.90;;;;;;5033641;28;20057;-66
2022/05/20 04:06:08;;;;;;;16.48;12.05;;;12.40;99.90;;;;;;5033362;28;20081;-66
2022/05/20 04:08:34;;;;;;;14.48;12.18;;;12.50;99.90;;;;;;5049068;28;20127;-66
2022/05/20 04:11:00;;;;;;;12.60;11.30;;;12.50;99.90;;;;;;5034182;28;20140;-66
2022/05/20 04:13:26;;;;;;;15.02;12.15;;;12.50;99.90;;;;;;5033570;28;20057;-65
2022/05/20 04:15:54;;;;;;;14.63;13.00;;;12.60;99.90;;;;;;5030697;28;20393;-65
2022/05/20 04:18:20;;;;;;;14.23;12.43;;;12.70;99.90;;;;;;5033370;28;20092;-65
2022/05/20 04:20:46;;;;;;;15.55;12.25;;;12.70;99.90;;;;;;5031698;28;20088;-66
2022/05/20 04:23:11;;;;;;;18.02;13.73;;;12.80;99.90;;;;;;5033089;28;20053;-65
2022/05/20 04:25:37;;;;;;;14.85;13.27;;;12.80;99.90;;;;;;5032388;28;20064;-66
2022/05/20 04:28:03;;;;;;;14.32;12.00;;;12.80;99.90;;;;;;5033371;28;20051;-65
2022/05/20 04:30:28;;;;;;;13.70;12.32;;;12.90;99.90;;;;;;5033230;28;20085;-66
2022/05/20 04:32:54;;;;;;;13.75;12.32;;;13.00;99.90;;;;;;5033228;28;20164;-65
2022/05/20 04:35:19;;;;;;;15.32;11.63;;;12.90;99.90;;;;;;5031816;28;20045;-65
2022/05/20 04:37:45;;;;;;;13.13;11.52;;;12.90;99.90;;;;;;5033218;28;20056;-65
2022/05/20 04:40:11;;;;;;;12.88;11.57;;;12.90;99.90;;;;;;5030103;28;20045;-65
2022/05/20 04:48:06;;;;;;;15.75;12.00;;;12.70;99.90;;;;;;5026720;28;20088;-65
2022/05/20 04:50:32;;;;;;;16.90;12.23;;;12.70;99.90;;;;;;5029234;28;20092;-65
2022/05/20 04:52:57;;;;;;;13.15;11.60;;;12.70;99.90;;;;;;5031843;28;20068;-65
2022/05/20 04:55:23;;;;;;;13.05;11.55;;;12.70;99.90;;;;;;5022959;28;20122;-66
2022/05/20 04:57:51;;;;;;;16.23;12.43;;;12.70;99.90;;;;;;5031531;28;20176;-65
2022/05/20 05:00:20;;;;;;;14.75;11.45;;;12.70;99.90;;;;;;5030631;28;20480;-66
2022/05/20 05:02:46;;;;;;;14.00;12.50;;;12.70;99.90;;;;;;5030519;28;20569;-66
2022/05/20 05:05:15;;;;;;;12.23;10.60;;;12.70;99.90;;;;;;5032304;28;20056;-66
2022/05/20 05:07:45;;;;;;;14.32;11.88;;;12.70;99.90;;;;;;5032735;28;20089;-66
2022/05/20 05:10:14;;;;;;;11.65;10.43;;;12.80;99.90;;;;;;5032644;28;20120;-66
2022/05/20 05:12:40;;;;;;;12.93;11.25;;;12.90;99.90;;;;;;5030783;28;20141;-65
2022/05/20 05:15:06;;;;;;;13.77;11.88;;;12.90;99.90;;;;;;5045028;28;20124;-65
2022/05/20 05:20:20;;;;;;;13.65;11.13;;;13.00;99.90;;;;;;5032523;28;20443;-66
2022/05/20 05:22:48;;;;;;;13.32;11.52;;;13.00;99.90;;;;;;5032530;28;20501;-66
2022/05/20 05:25:14;;;;;;;14.90;11.65;;;13.10;99.90;;;;;;5030433;28;20514;-66
2022/05/20 05:27:40;;;;;;;15.05;12.57;;;13.20;99.90;;;;;;5030631;28;20474;-65
2022/05/20 05:30:07;;;;;;;16.67;11.93;;;13.20;99.90;;;;;;5031222;28;20100;-66
2022/05/20 05:32:35;;;;;;;12.18;9.98;;;13.30;99.90;;;;;;5029929;28;20049;-65
2022/05/20 05:35:01;;;;;;;14.50;10.38;;;13.70;99.90;;;;;;5033750;28;20065;-65
2022/05/20 05:37:26;;;;;;;13.60;9.73;;;14.80;99.90;;;;;;5032010;28;20056;-65
2022/05/20 05:39:52;;;;;;;12.05;10.35;;;15.90;99.90;;;;;;5034323;28;20045;-66
2022/05/20 05:42:18;;;;;;;13.07;10.52;;;16.70;99.90;;;;;;5033715;28;20049;-65
2022/05/20 05:44:43;;;;;;;13.63;10.32;;;17.30;99.90;;;;;;5034213;28;20409;-65
2022/05/20 05:47:09;;;;;;;13.43;10.07;;;17.90;99.90;;;;;;5034274;28;20053;-65
2022/05/20 05:49:44;;;;;;;12.65;10.50;;;18.20;99.90;;;;;;5036897;28;20137;-67
2022/05/20 05:52:10;;;;;;;12.60;9.52;;;18.80;99.90;;;;;;5018628;28;20132;-67
2022/05/20 05:54:35;;;;;;;10.82;9.52;;;19.20;99.90;;;;;;5035429;28;20116;-66
2022/05/20 05:57:02;;;;;;;14.43;10.25;;;19.50;99.90;;;;;;5036088;28;20053;-67
2022/05/20 05:59:28;;;;;;;11.93;9.75;;;19.70;99.90;;;;;;5036106;28;20485;-66
2022/05/20 06:02:01;;;;;;;11.68;10.20;;;19.80;99.90;;;;;;5033533;28;20046;-65
2022/05/20 06:04:30;;;;;;;9.32;8.45;;;20.10;99.90;;;;;;5034439;28;20095;-66
2022/05/20 06:06:58;;;;;;;9.85;8.88;;;20.40;99.90;;;;;;5033930;28;20151;-66
2022/05/20 06:09:24;;;;;;;11.00;8.60;;;20.70;99.90;;;;;;5035014;28;20046;-65
2022/05/20 06:11:50;;;;;;;10.30;8.85;;;20.10;99.90;;;;;;5034704;28;20128;-66
2022/05/20 06:14:17;;;;;;;11.85;8.50;;;19.50;99.90;;;;;;5035219;28;20445;-66
2022/05/20 06:16:43;;;;;;;10.52;8.50;;;19.70;99.90;;;;;;5030803;28;20056;-66
2022/05/20 06:19:10;;;;;;;10.15;8.40;;;20.20;99.90;;;;;;5033704;28;20045;-66
2022/05/20 06:21:37;;;;;;;9.65;8.57;;;19.80;99.90;;;;;;5034800;28;20060;-64
2022/05/20 06:24:04;;;;;;;12.75;8.25;;;19.20;99.90;;;;;;5035521;28;20042;-65
2022/05/20 06:26:31;;;;;;;10.77;8.18;;;18.30;99.90;;;;;;5034903;28;20180;-66
2022/05/20 06:28:57;;;;;;;11.23;8.32;;;17.70;99.90;;;;;;5035978;28;20132;-65
2022/05/20 06:31:22;;;;;;;9.70;7.90;;;17.50;99.90;;;;;;5034279;28;20176;-66
2022/05/20 06:33:48;;;;;;;10.23;7.82;;;17.20;99.90;;;;;;5032216;28;20041;-65
2022/05/20 06:41:42;;;;;;;10.13;8.82;;;16.30;99.90;;;;;;5015567;28;20057;-65
2022/05/20 06:44:07;;;;;;;10.93;8.15;;;16.10;99.90;;;;;;5016141;28;20058;-67
2022/05/20 06:46:33;;;;;;;12.48;9.13;;;16.00;99.90;;;;;;5032107;28;20128;-66
2022/05/20 06:49:00;;;;;;;13.38;9.27;;;15.80;99.90;;;;;;5034314;28;20512;-65
2022/05/20 06:51:28;;;;;;;11.75;9.65;;;15.60;99.90;;;;;;5035061;28;20049;-66
2022/05/20 06:53:56;;;;;;;10.40;9.25;;;15.70;99.90;;;;;;5033667;28;20050;-65
2022/05/20 06:56:24;;;;;;;13.80;9.23;;;15.80;99.90;;;;;;5032400;28;20375;-66
2022/05/20 06:58:50;;;;;;;15.38;9.75;;;15.90;99.90;;;;;;5034441;28;20051;-66
2022/05/20 07:01:16;;;;;;;14.32;9.30;;;16.10;99.90;;;;;;5033217;28;20132;-66
2022/05/20 07:03:42;;;;;;;11.27;8.77;;;16.40;99.90;;;;;;5034878;28;20482;-66
2022/05/20 07:06:08;;;;;;;8.40;7.50;;;16.50;99.90;;;;;;5034729;28;20053;-65
2022/05/20 07:08:35;;;;;;;9.82;7.68;;;16.70;99.90;;;;;;5034181;28;20058;-66
2022/05/20 07:11:02;;;;;;;7.72;6.93;;;16.70;99.90;;;;;;5035337;28;20075;-65
2022/05/20 07:13:29;;;;;;;10.40;7.70;;;16.70;99.90;;;;;;5017223;28;20425;-65
2022/05/20 07:15:55;;;;;;;10.57;7.50;;;16.70;99.90;;;;;;5034150;28;20049;-64
2022/05/20 07:18:20;;;;;;;10.07;8.60;;;16.70;99.90;;;;;;5034429;28;20095;-66
2022/05/20 07:20:46;;;;;;;10.07;8.95;;;16.80;99.90;;;;;;5033270;28;20080;-66
2022/05/20 07:23:11;;;;;;;9.40;7.93;;;17.00;99.90;;;;;;5034562;28;20056;-65
2022/05/20 07:25:37;;;;;;;9.82;8.27;;;17.30;99.90;;;;;;5033623;28;20068;-67
2022/05/20 07:28:03;;;;;;;9.55;7.10;;;17.40;99.90;;;;;;5033853;28;20049;-67
2022/05/20 07:30:29;;;;;;;9.85;7.80;;;17.50;99.90;;;;;;5034679;28;20099;-65
2022/05/20 07:32:55;;;;;;;10.52;7.00;;;17.50;99.90;;;;;;5032398;28;20132;-66
2022/05/20 07:35:20;;;;;;;7.93;7.15;;;17.60;99.90;;;;;;5032588;28;20084;-66
2022/05/20 07:37:48;;;;;;;9.00;7.20;;;17.60;99.90;;;;;;5033244;28;20081;-66
2022/05/20 07:40:13;;;;;;;8.13;6.78;;;17.80;99.90;;;;;;5034260;28;20529;-67
2022/05/20 07:42:39;;;;;;;7.85;6.45;;;17.90;99.90;;;;;;5033396;28;20054;-66
2022/05/20 07:45:05;;;;;;;10.38;6.68;;;18.10;99.90;;;;;;5033072;28;20041;-66
2022/05/20 07:47:30;;;;;;;7.93;6.47;;;18.10;99.90;;;;;;5033157;28;20501;-68
2022/05/20 07:49:56;;;;;;;7.97;6.00;;;18.10;99.90;;;;;;5033014;28;20121;-66
2022/05/20 07:55:08;;;;;;;7.20;5.45;;;17.90;99.90;;;;;;5033930;28;20048;-65
2022/05/20 07:57:35;;;;;;;8.05;5.93;;;17.90;99.90;;;;;;5034191;28;20056;-67
2022/05/20 08:00:03;;;;;;;7.53;6.15;;;18.10;99.90;;;;;;5033491;28;20057;-67
2022/05/20 08:02:29;;;;;;;7.18;5.78;;;18.20;99.90;;;;;;5032117;28;20065;-66
2022/05/20 08:04:58;;;;;;;8.05;6.43;;;18.30;99.90;;;;;;5032784;28;20057;-66
2022/05/20 08:07:33;;;;;;;9.90;6.80;;;18.40;99.90;;;;;;5032797;28;20099;-67
2022/05/20 08:10:21;;;;;;;8.15;6.95;;;18.40;99.90;;;;;;5033831;28;20175;-65
2022/05/20 08:12:47;;;;;;;9.93;7.70;;;18.40;99.90;;;;;;5033887;28;20128;-67
2022/05/20 08:15:14;;;;;;;11.20;7.45;;;18.50;99.90;;;;;;5032414;28;20053;-67
2022/05/20 08:17:40;;;;;;;8.27;7.35;;;18.60;99.90;;;;;;5032171;28;20058;-67
2022/05/20 08:20:10;;;;;;;9.73;7.55;;;18.50;99.90;;;;;;5032281;28;20060;-66
2022/05/20 08:22:36;;;;;;;11.10;8.18;;;18.60;99.90;;;;;;5033635;28;20155;-67
2022/05/20 08:25:03;;;;;;;9.63;7.53;;;18.60;99.90;;;;;;5033428;28;20135;-67
2022/05/20 08:27:30;;;;;;;10.13;8.15;;;18.50;99.90;;;;;;5033542;28;20053;-66
2022/05/20 08:29:56;;;;;;;7.53;6.78;;;18.40;99.90;;;;;;5032090;28;20137;-67
2022/05/20 08:32:22;;;;;;;9.10;6.50;;;18.40;99.90;;;;;;5031448;28;20076;-66
2022/05/20 08:34:49;;;;;;;9.18;7.00;;;18.50;99.90;;;;;;5031958;28;20057;-65
2022/05/20 08:37:17;;;;;;;7.90;6.57;;;18.50;99.90;;;;;;5031951;28;20117;-67
2022/05/20 08:39:43;;;;;;;9.55;7.15;;;18.60;99.90;;;;;;5033583;28;20057;-65
2022/05/20 08:42:30;;;;;;;6.95;6.32;;;18.80;99.90;;;;;;5032171;28;20062;-66
2022/05/20 08:44:57;;;;;;;10.25;7.88;;;19.00;99.90;;;;;;5033062;28;20041;-66
2022/05/20 08:47:31;;;;;;;7.95;7.15;;;19.10;99.90;;;;;;5033123;28;20057;-66
2022/05/20 08:50:00;;;;;;;9.93;7.38;;;19.20;99.90;;;;;;5033349;28;20051;-65
2022/05/20 08:52:27;;;;;;;8.80;7.15;;;19.20;99.90;;;;;;5033464;28;20049;-65
2022/05/20 08:54:53;;;;;;;8.27;7.18;;;19.30;99.90;;;;;;5033195;28;20136;-66
2022/05/20 08:57:33;;;;;;;7.97;7.05;;;19.30;99.90;;;;;;5033405;28;20112;-67
2022/05/20 09:00:00;;;;;;;8.18;7.38;;;19.30;99.90;;;;;;5032525;28;20045;-65
2022/05/20 09:02:26;;;;;;;8.57;7.22;;;19.30;99.90;;;;;;5032878;28;20053;-66
2022/05/20 09:04:52;;;;;;;9.02;8.13;;;19.30;99.90;;;;;;5032908;28;20064;-66
2022/05/20 09:07:20;;;;;;;8.95;8.05;;;19.50;99.90;;;;;;5032595;28;20462;-66
2022/05/20 09:09:58;;;;;;;10.00;7.53;;;19.60;99.90;;;;;;5031609;28;20107;-68
2022/05/20 09:12:34;;;;;;;9.05;7.38;;;19.70;99.90;;;;;;5031682;28;20092;-66
2022/05/20 09:18:05;;;;;;;7.47;6.78;;;19.70;99.90;;;;;;5032314;28;20394;-66
2022/05/20 09:20:31;;;;;;;9.20;7.45;;;19.80;99.90;;;;;;5032860;28;20049;-67
2022/05/20 09:23:00;;;;;;;11.55;8.05;;;19.80;99.90;;;;;;5032738;28;20373;-67
2022/05/20 09:25:29;;;;;;;9.05;7.85;;;19.90;99.90;;;;;;5031626;28;20049;-65
2022/05/20 09:28:29;;;;;;;8.15;7.45;;;19.90;99.90;;;;;;5031334;28;20057;-66
2022/05/20 09:31:13;;;;;;;9.00;7.05;;;19.90;99.90;;;;;;5032271;28;20158;-65
2022/05/20 09:33:39;;;;;;;7.40;6.70;;;19.90;99.90;;;;;;5032441;28;20521;-67
2022/05/20 09:36:05;;;;;;;9.32;6.90;;;19.80;99.90;;;;;;5030702;28;20072;-66
2022/05/20 09:38:41;;;;;;;8.80;7.18;;;20.00;99.90;;;;;;5033061;28;20062;-65
2022/05/20 09:41:20;;;;;;;8.20;7.35;;;20.00;99.90;;;;;;5031291;28;20060;-65
2022/05/20 09:43:58;;;;;;;7.03;6.32;;;20.00;99.90;;;;;;5033004;28;20045;-65
2022/05/20 09:46:39;;;;;;;9.25;7.70;;;20.00;99.90;;;;;;5032232;28;20052;-67
2022/05/20 09:49:18;;;;;;;8.52;7.72;;;20.20;99.90;;;;;;5033282;28;20334;-66
2022/05/20 09:51:57;;;;;;;8.45;7.30;;;20.10;99.90;;;;;;5030759;28;20049;-65
2022/05/20 09:54:35;;;;;;;7.22;6.63;;;20.10;99.90;;;;;;5032733;28;20138;-65
2022/05/20 09:57:13;;;;;;;8.07;6.80;;;20.10;99.90;;;;;;5032397;28;20437;-66
2022/05/20 09:59:52;;;;;;;8.48;7.57;;;20.10;99.90;;;;;;5031573;28;20050;-65
2022/05/20 10:02:33;;;;;;;9.45;7.00;;;20.00;99.90;;;;;;5030851;28;20486;-66
2022/05/20 10:05:23;;;;;;;7.22;6.15;;;20.00;99.90;;;;;;5032485;28;20049;-65
2022/05/20 10:08:10;;;;;;;7.07;6.25;;;20.20;99.90;;;;;;5031189;28;20195;-67
2022/05/20 10:10:39;;;;;;;7.20;6.32;;;20.20;99.90;;;;;;5032677;28;20119;-66
2022/05/20 10:13:07;;;;;;;6.18;5.55;;;20.30;99.90;;;;;;5032370;28;20049;-65
2022/05/20 10:15:46;;;;;;;6.95;6.22;;;20.30;99.90;;;;;;5031425;28;20045;-67
2022/05/20 10:18:41;;;;;;;6.53;5.90;;;20.40;99.90;;;;;;5033012;28;20132;-66
2022/05/20 10:21:18;;;;;;;7.47;5.20;;;20.40;89.80;;;;;;5030745;28;20053;-65
2022/05/20 10:23:54;;;;;;;8.20;6.65;;;20.50;99.90;;;;;;5034936;28;20490;-67
2022/05/20 10:26:31;;;;;;;9.05;6.90;;;20.50;99.90;;;;;;5034848;28;20057;-66
2022/05/20 10:34:47;;;;;;;6.00;5.50;;;20.70;99.90;;;;;;5035106;28;20076;-66
2022/05/20 10:37:42;;;;;;;7.30;6.60;;;20.70;99.90;;;;;;5033589;28;20073;-65
2022/05/20 10:40:21;;;;;;;6.13;5.50;;;20.60;99.90;;;;;;5034546;28;20103;-65
2022/05/20 10:43:23;;;;;;;5.95;5.38;;;20.60;99.90;;;;;;5035562;28;20418;-67
2022/05/20 10:49:11;;;;;;;5.75;5.25;;;20.80;74.10;;;;;;5035325;28;20045;-66
2022/05/20 10:51:54;;;;;;;5.55;5.15;;;20.80;96.40;;;;;;5035572;28;20092;-66
2022/05/20 10:54:58;;;;;;;6.57;5.97;;;20.80;96.90;;;;;;5035183;28;20128;-66
2022/05/20 10:57:44;;;;;;;7.28;6.57;;;20.90;95.50;;;;;;5033812;28;20045;-67
2022/05/20 11:00:21;;;;;;;8.43;7.47;;;20.90;96.90;;;;;;5035023;28;20589;-65
2022/05/20 11:03:08;;;;;;;8.95;8.05;;;21.00;98.10;;;;;;5034504;28;20065;-66
2022/05/20 11:05:59;;;;;;;7.95;7.15;;;20.90;99.90;;;;;;5035314;28;20103;-65
2022/05/20 11:08:47;;;;;;;7.15;6.55;;;21.00;99.90;;;;;;5034585;28;20049;-65
2022/05/20 11:11:34;;;;;;;5.53;5.03;;;21.00;78.10;;;;;;5030817;28;20490;-65
2022/05/20 11:14:35;;;;;;;3.63;3.33;;;20.90;97.40;;;;;;5032950;28;20045;-66
2022/05/20 11:17:30;;;;;;;5.15;4.30;;;21.00;84.80;;;;;;5032489;28;20046;-67
2022/05/20 11:20:07;;;;;;;6.80;6.10;;;21.00;66.70;;;;;;5033840;28;20388;-65
2022/05/20 11:22:51;;;;;;;7.25;6.65;;;21.00;83.90;;;;;;5034372;28;20401;-65
2022/05/20 11:25:34;;;;;;;7.60;6.90;;;21.00;77.20;;;;;;5031144;28;20064;-65
2022/05/20 11:28:04;;;;;;;7.60;6.85;;;21.10;94.50;;;;;;5032583;28;20057;-66
2022/05/20 11:30:33;;;;;;;6.35;5.75;;;21.20;88.20;;;;;;5033365;28;20050;-66
2022/05/20 11:33:04;;;;;;;6.22;5.63;;;21.30;82.80;;;;;;5033924;28;20199;-66
2022/05/20 11:35:59;;;;;;;6.43;5.83;;;21.30;73.40;;;;;;5033566;28;20144;-67
2022/05/20 11:39:02;;;;;;;7.57;6.88;;;21.40;72.40;;;;;;5033635;28;20108;-67
2022/05/20 11:41:55;;;;;;;5.03;4.53;;;21.50;71.00;;;;;;5033969;28;20057;-66
2022/05/20 11:44:40;;;;;;;;;;;21.50;67.20;;;;;;5034316;28;20061;-65
2022/05/20 11:47:40;;;;;;;3.85;3.55;;;21.40;58.60;;;;;;5024126;28;19928;-66
2022/05/20 11:50:15;;;;;;;5.25;3.05;;;21.30;59.40;;;;;;5016862;28;20057;-67
2022/05/20 11:52:58;;;;;;;3.55;3.25;;;21.20;63.80;;;;;;5034187;28;20064;-65
2022/05/20 11:55:47;;;;;;;10.23;3.67;;;21.20;63.30;;;;;;5033167;28;20057;-65
2022/05/20 11:58:28;;;;;;;3.03;2.83;;;21.20;61.80;;;;;;5034046;28;20132;-66
2022/05/20 12:00:54;;;;;;;3.25;2.55;;;21.10;60.40;;;;;;5033543;28;20062;-67
2022/05/20 12:03:26;;;;;;;2.58;2.38;;;21.10;61.90;;;;;;5034034;28;20068;-66
2022/05/20 12:05:53;;;;;;;6.43;4.00;;;21.10;62.20;;;;;;5033582;28;20077;-66
2022/05/20 12:08:37;;;;;;;4.75;3.38;;;21.10;62.80;;;;;;5033731;28;20128;-67
2022/05/20 12:11:30;;;;;;;4.20;3.55;;;21.10;65.20;;;;;;5027256;28;20393;-66
2022/05/20 12:14:04;;;;;;;5.22;4.35;;;21.20;64.60;;;;;;5027842;28;20131;-67
2022/05/20 12:16:32;;;;;;;4.85;4.45;;;21.20;65.00;;;;;;5033269;28;20100;-66
2022/05/20 12:25:39;;;;;;;5.25;4.75;;;20.90;69.30;;;;;;5033094;28;20044;-67
2022/05/20 12:28:34;;;;;;;6.38;4.25;;;21.00;74.30;;;;;;5030389;28;20056;-65
2022/05/20 12:31:13;;;;;;;3.90;3.60;;;21.20;78.90;;;;;;5010059;28;20058;-67
2022/05/20 12:33:56;;;;;;;4.80;4.28;;;21.40;75.50;;;;;;4995840;28;20128;-66
2022/05/20 12:36:30;;;;;;;5.65;4.90;;;21.40;75.70;;;;;;5013280;28;20402;-66
2022/05/20 12:39:08;;;;;;;6.35;5.20;;;21.50;79.40;;;;;;4995986;28;20045;-65
2022/05/20 12:41:38;;;;;;;7.63;5.90;;;21.50;80.50;;;;;;5013167;28;20141;-65
2022/05/20 12:44:15;;;;;;;6.10;5.03;;;21.30;90.00;;;;;;5029071;28;20158;-65
2022/05/20 12:47:18;;;;;;;5.15;4.63;;;21.20;82.80;;;;;;5032664;28;20041;-65
2022/05/20 12:49:47;;;;;;;5.85;5.25;;;21.10;83.10;;;;;;5026647;28;20077;-65
2022/05/20 12:52:26;;;;;;;6.25;5.30;;;21.10;93.40;;;;;;5029802;28;20045;-66
2022/05/20 12:54:54;;;;;;;6.03;5.43;;;21.10;89.90;;;;;;5032464;28;20081;-64
2022/05/20 12:57:26;;;;;;;6.07;5.47;;;21.10;97.60;;;;;;5031655;28;20067;-64
2022/05/20 12:59:58;;;;;;;7.22;6.07;;;21.10;96.90;;;;;;5033166;28;20053;-65
2022/05/20 13:02:27;;;;;;;;;;;21.10;94.60;;;;;;5032862;28;20049;-64
2022/05/20 13:05:24;;;;;;;8.45;7.63;;;21.00;95.10;;;;;;5031988;28;19979;-65
2022/05/20 13:07:52;;;;;;;9.77;8.85;;;21.00;94.60;;;;;;5030860;28;20076;-65
2022/05/20 13:10:34;;;;;;;11.57;10.48;;;20.90;99.90;;;;;;5031168;28;20060;-65
2022/05/20 13:13:07;;;;;;;12.15;10.98;;;20.80;99.30;;;;;;5031067;28;20444;-63
2022/05/20 13:15:41;;;;;;;12.80;11.43;;;20.70;99.90;;;;;;5032541;28;20065;-64
2022/05/20 13:18:18;;;;;;;13.50;12.30;;;20.60;99.90;;;;;;5032462;28;20084;-64
2022/05/20 13:20:45;;;;;;;13.98;12.77;;;20.50;99.90;;;;;;5032162;28;20520;-65
2022/05/20 13:23:19;;;;;;;14.25;12.85;;;20.30;99.90;;;;;;5032500;28;20063;-65
2022/05/20 13:25:45;;;;;;;16.23;14.52;;;20.20;99.90;;;;;;5031740;28;20487;-64
2022/05/20 13:28:11;;;;;;;15.10;13.60;;;20.00;99.90;;;;;;5032391;28;20088;-64
2022/05/20 13:30:37;;;;;;;14.00;12.60;;;20.00;99.90;;;;;;5031579;28;20096;-64
2022/05/20 13:33:10;;;;;;;13.98;12.57;;;19.90;99.90;;;;;;5031901;28;20449;-65
2022/05/20 13:36:06;;;;;;;13.52;12.23;;;19.90;99.90;;;;;;5032035;28;20457;-65
2022/05/20 13:38:42;;;;;;;13.30;11.98;;;19.80;99.90;;;;;;5027025;28;20060;-64
2022/05/20 13:41:08;;;;;;;13.40;12.05;;;19.70;99.90;;;;;;5031534;28;20095;-64
2022/05/20 13:44:03;;;;;;;14.05;12.55;;;19.60;99.90;;;;;;5032684;28;20410;-65
2022/05/20 13:49:40;;;;;;;14.73;13.25;;;19.30;99.90;;;;;;5032749;28;20057;-67